sensor_id;sensor_type;location;lat;lon;timestamp;temperature;humidity
21778;DHT22;11050;52.222;20.916;2023-06-24T00:01:51;19.00;99.90
21778;DHT22;11050;52.222;20.916;2023-06-24T00:04:16;19.00;99.90
21778;DHT22;11050;52.222;20.916;2023-06-24T00:06:44;19.00;99.90
21778;DHT22;11050;52.222;20.916;2023-06-24T00:09:10;19.00;99.90
21778;DHT22;11050;52.222;20.916;2023-06-24T00:11:36;19.00;99.90
21778;DHT22;11050;52.222;20.916;2023-06-24T00:14:01;19.00;99.90
21778;DHT22;11050;52.222;20.916;2023-06-24T00:16:27;19.00;99.90
21778;DHT22;11050;52.222;20.916;2023-06-24T00:18:56;19.00;99.90
21778;DHT22;11050;52.222;20.916;2023-06-24T00:21:24;18.90;99.90
21778;DHT22;11050;52.222;20.916;2023-06-24T00:23:59;18.90;99.90
21778;DHT22;11050;52.222;20.916;2023-06-24T00:26:27;18.90;99.90
21778;DHT22;11050;52.222;20.916;2023-06-24T00:28:53;18.90;99.90
21778;DHT22;11050;52.222;20.916;2023-06-24T00:31:19;18.90;99.90
21778;DHT22;11050;52.222;20.916;2023-06-24T00:33:46;18.90;99.90
21778;DHT22;11050;52.222;20.916;2023-06-24T00:36:12;18.90;99.90
21778;DHT22;11050;52.222;20.916;2023-06-24T00:38:39;18.80;99.90
21778;DHT22;11050;52.222;20.916;2023-06-24T00:41:04;18.80;99.90
21778;DHT22;11050;52.222;20.916;2023-06-24T00:43:31;18.80;99.90
21778;DHT22;11050;52.222;20.916;2023-06-24T00:45:57;18.80;99.90
21778;DHT22;11050;52.222;20.916;2023-06-24T00:48:23;18.80;99.90
21778;DHT22;11050;52.222;20.916;2023-06-24T00:50:50;18.80;99.90
21778;DHT22;11050;52.222;20.916;2023-06-24T00:53:17;18.70;99.90
21778;DHT22;11050;52.222;20.916;2023-06-24T00:55:44;18.70;99.90
21778;DHT22;11050;52.222;20.916;2023-06-24T00:58:13;18.70;99.90
21778;DHT22;11050;52.222;20.916;2023-06-24T01:00:46;18.70;99.90
21778;DHT22;11050;52.222;20.916;2023-06-24T01:03:23;18.70;99.90
21778;DHT22;11050;52.222;20.916;2023-06-24T01:05:51;18.70;99.90
21778;DHT22;11050;52.222;20.916;2023-06-24T01:08:18;18.70;99.90
21778;DHT22;11050;52.222;20.916;2023-06-24T01:10:45;18.60;99.90
21778;DHT22;11050;52.222;20.916;2023-06-24T01:13:11;18.70;99.90
21778;DHT22;11050;52.222;20.916;2023-06-24T01:15:37;18.60;99.90
21778;DHT22;11050;52.222;20.916;2023-06-24T01:18:07;18.60;99.90
21778;DHT22;11050;52.222;20.916;2023-06-24T01:20:59;18.60;99.90
21778;DHT22;11050;52.222;20.916;2023-06-24T01:32:16;18.60;99.90
21778;DHT22;11050;52.222;20.916;2023-06-24T01:37:27;18.50;99.90
21778;DHT22;11050;52.222;20.916;2023-06-24T01:40:17;18.60;99.90
21778;DHT22;11050;52.222;20.916;2023-06-24T01:42:49;18.50;99.90
21778;DHT22;11050;52.222;20.916;2023-06-24T01:45:24;18.50;99.90
21778;DHT22;11050;52.222;20.916;2023-06-24T01:50:45;18.40;99.90
21778;DHT22;11050;52.222;20.916;2023-06-24T01:53:20;18.40;99.90
21778;DHT22;11050;52.222;20.916;2023-06-24T01:55:48;18.30;99.90
21778;DHT22;11050;52.222;20.916;2023-06-24T01:58:17;18.20;99.90
21778;DHT22;11050;52.222;20.916;2023-06-24T02:00:45;18.20;99.90
21778;DHT22;11050;52.222;20.916;2023-06-24T02:03:12;18.20;99.90
21778;DHT22;11050;52.222;20.916;2023-06-24T02:05:40;18.10;99.90
21778;DHT22;11050;52.222;20.916;2023-06-24T02:08:09;18.10;99.90
21778;DHT22;11050;52.222;20.916;2023-06-24T02:10:39;18.10;99.90
21778;DHT22;11050;52.222;20.916;2023-06-24T02:13:09;18.00;99.90
21778;DHT22;11050;52.222;20.916;2023-06-24T02:15:38;18.00;99.90
21778;DHT22;11050;52.222;20.916;2023-06-24T02:18:05;17.90;99.90
21778;DHT22;11050;52.222;20.916;2023-06-24T02:20:35;17.90;99.90
21778;DHT22;11050;52.222;20.916;2023-06-24T02:23:04;17.90;99.90
21778;DHT22;11050;52.222;20.916;2023-06-24T02:25:33;17.90;99.90
21778;DHT22;11050;52.222;20.916;2023-06-24T02:28:04;17.90;99.90
21778;DHT22;11050;52.222;20.916;2023-06-24T02:30:30;17.90;99.90
21778;DHT22;11050;52.222;20.916;2023-06-24T02:32:57;17.90;99.90
21778;DHT22;11050;52.222;20.916;2023-06-24T02:35:23;17.90;99.90
21778;DHT22;11050;52.222;20.916;2023-06-24T02:37:49;17.90;99.90
21778;DHT22;11050;52.222;20.916;2023-06-24T02:40:15;17.90;99.90
21778;DHT22;11050;52.222;20.916;2023-06-24T02:42:40;17.90;99.90
21778;DHT22;11050;52.222;20.916;2023-06-24T02:45:06;17.90;99.90
21778;DHT22;11050;52.222;20.916;2023-06-24T02:47:34;17.90;99.90
21778;DHT22;11050;52.222;20.916;2023-06-24T02:50:03;17.90;99.90
21778;DHT22;11050;52.222;20.916;2023-06-24T02:52:31;17.90;99.90
21778;DHT22;11050;52.222;20.916;2023-06-24T02:54:57;17.90;99.90
21778;DHT22;11050;52.222;20.916;2023-06-24T02:57:25;17.90;99.90
21778;DHT22;11050;52.222;20.916;2023-06-24T02:59:52;17.90;99.90
21778;DHT22;11050;52.222;20.916;2023-06-24T03:02:18;17.90;99.90
21778;DHT22;11050;52.222;20.916;2023-06-24T03:04:44;17.90;99.90
21778;DHT22;11050;52.222;20.916;2023-06-24T03:07:11;17.90;99.90
21778;DHT22;11050;52.222;20.916;2023-06-24T03:09:37;17.90;99.90
21778;DHT22;11050;52.222;20.916;2023-06-24T03:12:05;17.90;99.90
21778;DHT22;11050;52.222;20.916;2023-06-24T03:14:31;18.00;99.90
21778;DHT22;11050;52.222;20.916;2023-06-24T03:16:57;18.00;99.90
21778;DHT22;11050;52.222;20.916;2023-06-24T03:19:23;18.00;99.90
21778;DHT22;11050;52.222;20.916;2023-06-24T03:21:49;18.00;99.90
21778;DHT22;11050;52.222;20.916;2023-06-24T03:24:14;18.00;99.90
21778;DHT22;11050;52.222;20.916;2023-06-24T03:26:40;18.10;99.90
21778;DHT22;11050;52.222;20.916;2023-06-24T03:29:06;18.10;99.90
21778;DHT22;11050;52.222;20.916;2023-06-24T03:31:33;18.10;99.90
21778;DHT22;11050;52.222;20.916;2023-06-24T03:33:59;18.20;99.90
21778;DHT22;11050;52.222;20.916;2023-06-24T03:36:25;18.20;99.90
21778;DHT22;11050;52.222;20.916;2023-06-24T03:38:51;18.30;99.90
21778;DHT22;11050;52.222;20.916;2023-06-24T03:41:17;18.30;99.90
21778;DHT22;11050;52.222;20.916;2023-06-24T03:43:42;18.30;99.90
21778;DHT22;11050;52.222;20.916;2023-06-24T03:46:11;18.40;99.90
21778;DHT22;11050;52.222;20.916;2023-06-24T03:48:37;18.40;99.90
21778;DHT22;11050;52.222;20.916;2023-06-24T03:51:03;18.40;99.90
21778;DHT22;11050;52.222;20.916;2023-06-24T03:53:28;18.50;99.90
21778;DHT22;11050;52.222;20.916;2023-06-24T03:55:54;18.60;99.90
21778;DHT22;11050;52.222;20.916;2023-06-24T03:58:20;18.60;99.90
21778;DHT22;11050;52.222;20.916;2023-06-24T04:00:47;18.70;99.90
21778;DHT22;11050;52.222;20.916;2023-06-24T04:03:15;18.70;99.90
21778;DHT22;11050;52.222;20.916;2023-06-24T04:05:44;18.80;99.90
21778;DHT22;11050;52.222;20.916;2023-06-24T04:08:10;18.80;99.90
21778;DHT22;11050;52.222;20.916;2023-06-24T04:10:35;18.80;99.90
21778;DHT22;11050;52.222;20.916;2023-06-24T04:13:01;18.90;99.90
21778;DHT22;11050;52.222;20.916;2023-06-24T04:15:27;19.00;99.90
21778;DHT22;11050;52.222;20.916;2023-06-24T04:17:53;19.00;99.90
21778;DHT22;11050;52.222;20.916;2023-06-24T04:20:18;19.10;99.90
21778;DHT22;11050;52.222;20.916;2023-06-24T04:22:44;19.10;99.90
21778;DHT22;11050;52.222;20.916;2023-06-24T04:25:10;19.20;99.90
21778;DHT22;11050;52.222;20.916;2023-06-24T04:27:37;19.20;99.90
21778;DHT22;11050;52.222;20.916;2023-06-24T04:30:03;19.30;99.90
21778;DHT22;11050;52.222;20.916;2023-06-24T04:32:29;19.30;99.90
21778;DHT22;11050;52.222;20.916;2023-06-24T04:34:55;19.30;99.90
21778;DHT22;11050;52.222;20.916;2023-06-24T04:37:23;19.40;99.90
21778;DHT22;11050;52.222;20.916;2023-06-24T04:39:49;19.40;99.90
21778;DHT22;11050;52.222;20.916;2023-06-24T04:42:14;19.40;99.90
21778;DHT22;11050;52.222;20.916;2023-06-24T04:44:40;19.50;99.90
21778;DHT22;11050;52.222;20.916;2023-06-24T04:47:06;19.50;99.90
21778;DHT22;11050;52.222;20.916;2023-06-24T04:49:32;19.50;99.90
21778;DHT22;11050;52.222;20.916;2023-06-24T04:52:00;19.60;99.90
21778;DHT22;11050;52.222;20.916;2023-06-24T04:54:26;19.70;99.90
21778;DHT22;11050;52.222;20.916;2023-06-24T04:56:52;19.80;99.90
21778;DHT22;11050;52.222;20.916;2023-06-24T04:59:21;19.80;99.90
21778;DHT22;11050;52.222;20.916;2023-06-24T05:01:47;19.90;99.90
21778;DHT22;11050;52.222;20.916;2023-06-24T05:04:13;20.00;99.90
21778;DHT22;11050;52.222;20.916;2023-06-24T05:06:38;20.10;99.90
21778;DHT22;11050;52.222;20.916;2023-06-24T05:09:04;20.20;99.90
21778;DHT22;11050;52.222;20.916;2023-06-24T05:11:30;20.20;99.90
21778;DHT22;11050;52.222;20.916;2023-06-24T05:13:56;20.30;99.90
21778;DHT22;11050;52.222;20.916;2023-06-24T05:16:23;20.40;99.90
21778;DHT22;11050;52.222;20.916;2023-06-24T05:18:49;20.50;99.90
21778;DHT22;11050;52.222;20.916;2023-06-24T05:21:15;20.60;99.90
21778;DHT22;11050;52.222;20.916;2023-06-24T05:23:41;20.70;99.90
21778;DHT22;11050;52.222;20.916;2023-06-24T05:26:07;20.80;99.90
21778;DHT22;11050;52.222;20.916;2023-06-24T05:28:33;20.90;99.90
21778;DHT22;11050;52.222;20.916;2023-06-24T05:30:58;21.00;99.90
21778;DHT22;11050;52.222;20.916;2023-06-24T05:33:24;21.10;99.90
21778;DHT22;11050;52.222;20.916;2023-06-24T05:35:51;21.20;99.90
21778;DHT22;11050;52.222;20.916;2023-06-24T05:38:16;21.20;99.90
21778;DHT22;11050;52.222;20.916;2023-06-24T05:40:42;21.30;99.90
21778;DHT22;11050;52.222;20.916;2023-06-24T05:43:08;21.40;99.90
21778;DHT22;11050;52.222;20.916;2023-06-24T05:45:33;21.50;99.90
21778;DHT22;11050;52.222;20.916;2023-06-24T05:47:59;21.50;99.90
21778;DHT22;11050;52.222;20.916;2023-06-24T05:50:25;21.60;99.90
21778;DHT22;11050;52.222;20.916;2023-06-24T05:52:51;21.70;99.90
21778;DHT22;11050;52.222;20.916;2023-06-24T05:55:16;21.80;99.90
21778;DHT22;11050;52.222;20.916;2023-06-24T05:57:42;21.80;99.90
21778;DHT22;11050;52.222;20.916;2023-06-24T06:00:08;21.80;99.90
21778;DHT22;11050;52.222;20.916;2023-06-24T06:02:34;21.90;99.90
21778;DHT22;11050;52.222;20.916;2023-06-24T06:05:00;21.90;99.90
21778;DHT22;11050;52.222;20.916;2023-06-24T06:07:27;21.90;99.90
21778;DHT22;11050;52.222;20.916;2023-06-24T06:09:52;21.90;99.90
21778;DHT22;11050;52.222;20.916;2023-06-24T06:12:18;22.00;99.90
21778;DHT22;11050;52.222;20.916;2023-06-24T06:14:44;22.00;99.90
21778;DHT22;11050;52.222;20.916;2023-06-24T06:17:09;22.10;99.90
21778;DHT22;11050;52.222;20.916;2023-06-24T06:19:35;22.10;99.90
21778;DHT22;11050;52.222;20.916;2023-06-24T06:22:01;22.20;99.90
21778;DHT22;11050;52.222;20.916;2023-06-24T06:24:27;22.30;99.90
21778;DHT22;11050;52.222;20.916;2023-06-24T06:26:52;22.30;99.90
21778;DHT22;11050;52.222;20.916;2023-06-24T06:29:18;22.40;99.90
21778;DHT22;11050;52.222;20.916;2023-06-24T06:31:44;22.40;99.90
21778;DHT22;11050;52.222;20.916;2023-06-24T06:34:09;22.50;99.90
21778;DHT22;11050;52.222;20.916;2023-06-24T06:36:35;22.50;99.90
21778;DHT22;11050;52.222;20.916;2023-06-24T06:39:01;22.60;99.90
21778;DHT22;11050;52.222;20.916;2023-06-24T06:41:27;22.60;99.90
21778;DHT22;11050;52.222;20.916;2023-06-24T06:43:53;22.70;99.90
21778;DHT22;11050;52.222;20.916;2023-06-24T06:46:20;22.80;99.90
21778;DHT22;11050;52.222;20.916;2023-06-24T06:48:45;22.90;99.90
21778;DHT22;11050;52.222;20.916;2023-06-24T06:51:12;22.90;99.90
21778;DHT22;11050;52.222;20.916;2023-06-24T06:53:38;23.00;99.90
21778;DHT22;11050;52.222;20.916;2023-06-24T06:56:04;23.00;99.90
21778;DHT22;11050;52.222;20.916;2023-06-24T06:58:30;23.10;99.90
21778;DHT22;11050;52.222;20.916;2023-06-24T07:00:56;23.10;99.90
21778;DHT22;11050;52.222;20.916;2023-06-24T07:03:26;23.10;99.90
21778;DHT22;11050;52.222;20.916;2023-06-24T07:05:53;23.20;99.90
21778;DHT22;11050;52.222;20.916;2023-06-24T07:08:19;23.20;99.90
21778;DHT22;11050;52.222;20.916;2023-06-24T07:10:45;23.20;99.90
21778;DHT22;11050;52.222;20.916;2023-06-24T07:13:10;23.30;99.90
21778;DHT22;11050;52.222;20.916;2023-06-24T07:15:36;23.40;99.90
21778;DHT22;11050;52.222;20.916;2023-06-24T07:18:02;23.50;99.90
21778;DHT22;11050;52.222;20.916;2023-06-24T07:20:28;23.50;99.90
21778;DHT22;11050;52.222;20.916;2023-06-24T07:22:53;23.60;99.90
21778;DHT22;11050;52.222;20.916;2023-06-24T07:25:19;23.60;99.90
21778;DHT22;11050;52.222;20.916;2023-06-24T07:27:45;23.50;99.90
21778;DHT22;11050;52.222;20.916;2023-06-24T07:30:11;23.50;99.90
21778;DHT22;11050;52.222;20.916;2023-06-24T07:32:36;23.50;99.90
21778;DHT22;11050;52.222;20.916;2023-06-24T07:35:02;23.50;99.90
21778;DHT22;11050;52.222;20.916;2023-06-24T07:37:28;23.60;99.90
21778;DHT22;11050;52.222;20.916;2023-06-24T07:39:54;23.60;98.50
21778;DHT22;11050;52.222;20.916;2023-06-24T07:42:20;23.60;97.50
21778;DHT22;11050;52.222;20.916;2023-06-24T07:44:46;23.60;96.80
21778;DHT22;11050;52.222;20.916;2023-06-24T07:47:17;23.50;96.50
21778;DHT22;11050;52.222;20.916;2023-06-24T07:49:43;23.50;96.90
21778;DHT22;11050;52.222;20.916;2023-06-24T07:52:09;23.60;96.80
21778;DHT22;11050;52.222;20.916;2023-06-24T07:54:35;23.70;97.10
21778;DHT22;11050;52.222;20.916;2023-06-24T07:57:01;23.80;95.70
21778;DHT22;11050;52.222;20.916;2023-06-24T07:59:27;23.90;95.90
21778;DHT22;11050;52.222;20.916;2023-06-24T08:01:53;24.00;95.30
21778;DHT22;11050;52.222;20.916;2023-06-24T08:04:19;24.10;94.40
21778;DHT22;11050;52.222;20.916;2023-06-24T08:06:48;24.20;93.90
21778;DHT22;11050;52.222;20.916;2023-06-24T08:09:15;24.30;92.90
21778;DHT22;11050;52.222;20.916;2023-06-24T08:11:42;24.40;93.40
21778;DHT22;11050;52.222;20.916;2023-06-24T08:14:08;24.50;91.70
21778;DHT22;11050;52.222;20.916;2023-06-24T08:16:34;24.50;91.00
21778;DHT22;11050;52.222;20.916;2023-06-24T08:18:59;24.70;89.50
21778;DHT22;11050;52.222;20.916;2023-06-24T08:21:25;24.70;85.60
21778;DHT22;11050;52.222;20.916;2023-06-24T08:23:51;24.80;83.30
21778;DHT22;11050;52.222;20.916;2023-06-24T08:26:19;24.90;78.50
21778;DHT22;11050;52.222;20.916;2023-06-24T08:28:47;24.90;75.10
21778;DHT22;11050;52.222;20.916;2023-06-24T08:31:13;25.00;72.50
21778;DHT22;11050;52.222;20.916;2023-06-24T08:33:43;25.00;72.70
21778;DHT22;11050;52.222;20.916;2023-06-24T08:36:12;25.00;73.00
21778;DHT22;11050;52.222;20.916;2023-06-24T08:38:38;25.20;73.30
21778;DHT22;11050;52.222;20.916;2023-06-24T08:41:03;25.30;70.40
21778;DHT22;11050;52.222;20.916;2023-06-24T08:43:29;25.40;68.50
21778;DHT22;11050;52.222;20.916;2023-06-24T08:45:55;25.50;70.60
21778;DHT22;11050;52.222;20.916;2023-06-24T08:48:21;25.60;66.60
21778;DHT22;11050;52.222;20.916;2023-06-24T08:50:51;25.60;66.90
21778;DHT22;11050;52.222;20.916;2023-06-24T08:53:21;25.70;66.90
21778;DHT22;11050;52.222;20.916;2023-06-24T08:55:48;25.80;64.50
21778;DHT22;11050;52.222;20.916;2023-06-24T08:58:18;25.80;64.00
21778;DHT22;11050;52.222;20.916;2023-06-24T09:00:44;25.80;62.70
21778;DHT22;11050;52.222;20.916;2023-06-24T09:03:10;25.80;63.50
21778;DHT22;11050;52.222;20.916;2023-06-24T09:05:36;25.80;63.10
21778;DHT22;11050;52.222;20.916;2023-06-24T09:08:01;25.90;62.20
21778;DHT22;11050;52.222;20.916;2023-06-24T09:10:33;25.90;62.70
21778;DHT22;11050;52.222;20.916;2023-06-24T09:13:02;25.90;61.70
21778;DHT22;11050;52.222;20.916;2023-06-24T09:15:39;25.90;61.80
21778;DHT22;11050;52.222;20.916;2023-06-24T09:18:05;26.00;61.60
21778;DHT22;11050;52.222;20.916;2023-06-24T09:20:32;26.00;61.20
21778;DHT22;11050;52.222;20.916;2023-06-24T09:23:03;26.00;64.70
21778;DHT22;11050;52.222;20.916;2023-06-24T09:25:30;26.20;64.70
21778;DHT22;11050;52.222;20.916;2023-06-24T09:28:00;26.30;63.00
21778;DHT22;11050;52.222;20.916;2023-06-24T09:30:27;26.30;61.00
21778;DHT22;11050;52.222;20.916;2023-06-24T09:32:54;26.30;60.00
21778;DHT22;11050;52.222;20.916;2023-06-24T09:35:22;26.30;60.60
21778;DHT22;11050;52.222;20.916;2023-06-24T09:37:56;26.30;59.40
21778;DHT22;11050;52.222;20.916;2023-06-24T09:40:24;26.20;59.00
21778;DHT22;11050;52.222;20.916;2023-06-24T09:42:57;26.30;59.00
21778;DHT22;11050;52.222;20.916;2023-06-24T09:45:29;26.30;58.80
21778;DHT22;11050;52.222;20.916;2023-06-24T09:47:56;26.40;58.00
21778;DHT22;11050;52.222;20.916;2023-06-24T09:50:26;26.40;58.50
21778;DHT22;11050;52.222;20.916;2023-06-24T09:52:53;26.40;58.80
21778;DHT22;11050;52.222;20.916;2023-06-24T09:55:22;26.40;58.30
21778;DHT22;11050;52.222;20.916;2023-06-24T09:57:51;26.40;57.40
21778;DHT22;11050;52.222;20.916;2023-06-24T10:00:19;26.40;57.10
21778;DHT22;11050;52.222;20.916;2023-06-24T10:02:47;26.30;56.80
21778;DHT22;11050;52.222;20.916;2023-06-24T10:05:14;26.20;57.40
21778;DHT22;11050;52.222;20.916;2023-06-24T10:07:41;26.20;56.40
21778;DHT22;11050;52.222;20.916;2023-06-24T10:10:08;26.10;57.30
21778;DHT22;11050;52.222;20.916;2023-06-24T10:12:37;26.10;58.10
21778;DHT22;11050;52.222;20.916;2023-06-24T10:15:05;26.10;58.10
21778;DHT22;11050;52.222;20.916;2023-06-24T10:17:31;26.10;56.50
21778;DHT22;11050;52.222;20.916;2023-06-24T10:19:57;26.10;56.30
21778;DHT22;11050;52.222;20.916;2023-06-24T10:22:23;26.10;56.70
21778;DHT22;11050;52.222;20.916;2023-06-24T10:24:54;26.10;56.40
21778;DHT22;11050;52.222;20.916;2023-06-24T10:27:23;26.00;57.60
21778;DHT22;11050;52.222;20.916;2023-06-24T10:29:51;26.00;59.40
21778;DHT22;11050;52.222;20.916;2023-06-24T10:32:19;26.10;58.20
21778;DHT22;11050;52.222;20.916;2023-06-24T10:34:47;26.20;58.20
21778;DHT22;11050;52.222;20.916;2023-06-24T10:37:21;26.30;58.20
21778;DHT22;11050;52.222;20.916;2023-06-24T10:39:56;26.30;58.90
21778;DHT22;11050;52.222;20.916;2023-06-24T10:47:45;26.70;59.50
21778;DHT22;11050;52.222;20.916;2023-06-24T10:50:18;26.70;58.10
21778;DHT22;11050;52.222;20.916;2023-06-24T10:52:50;26.70;58.20
21778;DHT22;11050;52.222;20.916;2023-06-24T10:55:23;26.70;57.20
21778;DHT22;11050;52.222;20.916;2023-06-24T10:57:51;26.50;57.00
21778;DHT22;11050;52.222;20.916;2023-06-24T11:00:17;26.40;57.40
21778;DHT22;11050;52.222;20.916;2023-06-24T11:02:43;26.20;57.90
21778;DHT22;11050;52.222;20.916;2023-06-24T11:05:09;26.00;58.30
21778;DHT22;11050;52.222;20.916;2023-06-24T11:07:37;25.80;58.90
21778;DHT22;11050;52.222;20.916;2023-06-24T11:10:09;25.60;59.20
21778;DHT22;11050;52.222;20.916;2023-06-24T11:12:38;25.30;59.90
21778;DHT22;11050;52.222;20.916;2023-06-24T11:15:06;25.20;60.50
21778;DHT22;11050;52.222;20.916;2023-06-24T11:17:35;25.00;61.10
21778;DHT22;11050;52.222;20.916;2023-06-24T11:20:04;25.00;61.80
21778;DHT22;11050;52.222;20.916;2023-06-24T11:22:33;24.90;62.30
21778;DHT22;11050;52.222;20.916;2023-06-24T11:24:59;24.90;62.60
21778;DHT22;11050;52.222;20.916;2023-06-24T11:27:27;24.80;64.30
21778;DHT22;11050;52.222;20.916;2023-06-24T11:29:55;24.70;65.10
21778;DHT22;11050;52.222;20.916;2023-06-24T11:32:24;24.60;65.80
21778;DHT22;11050;52.222;20.916;2023-06-24T11:34:50;24.50;66.50
21778;DHT22;11050;52.222;20.916;2023-06-24T11:37:18;24.50;66.90
21778;DHT22;11050;52.222;20.916;2023-06-24T11:39:44;24.30;67.20
21778;DHT22;11050;52.222;20.916;2023-06-24T11:42:25;24.20;67.80
21778;DHT22;11050;52.222;20.916;2023-06-24T11:44:50;24.20;68.80
21778;DHT22;11050;52.222;20.916;2023-06-24T11:47:16;24.10;70.00
21778;DHT22;11050;52.222;20.916;2023-06-24T11:49:52;24.00;69.40
21778;DHT22;11050;52.222;20.916;2023-06-24T11:55:03;23.80;71.20
21778;DHT22;11050;52.222;20.916;2023-06-24T11:57:55;23.80;71.80
21778;DHT22;11050;52.222;20.916;2023-06-24T12:00:45;23.80;72.50
21778;DHT22;11050;52.222;20.916;2023-06-24T12:03:11;23.80;73.00
21778;DHT22;11050;52.222;20.916;2023-06-24T12:05:38;23.80;72.50
21778;DHT22;11050;52.222;20.916;2023-06-24T12:08:11;23.80;72.40
21778;DHT22;11050;52.222;20.916;2023-06-24T12:10:38;23.70;72.00
21778;DHT22;11050;52.222;20.916;2023-06-24T12:13:05;23.70;72.40
21778;DHT22;11050;52.222;20.916;2023-06-24T12:15:32;23.60;73.40
21778;DHT22;11050;52.222;20.916;2023-06-24T12:17:58;23.60;73.20
21778;DHT22;11050;52.222;20.916;2023-06-24T12:20:25;23.50;72.80
21778;DHT22;11050;52.222;20.916;2023-06-24T12:22:51;23.50;73.10
21778;DHT22;11050;52.222;20.916;2023-06-24T12:25:18;23.50;72.80
21778;DHT22;11050;52.222;20.916;2023-06-24T12:27:44;23.50;73.30
21778;DHT22;11050;52.222;20.916;2023-06-24T12:30:11;23.40;72.00
21778;DHT22;11050;52.222;20.916;2023-06-24T12:32:38;23.40;72.00
21778;DHT22;11050;52.222;20.916;2023-06-24T12:35:05;23.30;72.90
21778;DHT22;11050;52.222;20.916;2023-06-24T12:37:34;23.40;72.90
21778;DHT22;11050;52.222;20.916;2023-06-24T12:40:01;23.40;72.60
21778;DHT22;11050;52.222;20.916;2023-06-24T12:42:27;23.50;72.70
21778;DHT22;11050;52.222;20.916;2023-06-24T12:44:53;23.50;73.20
21778;DHT22;11050;52.222;20.916;2023-06-24T12:47:19;23.60;73.60
21778;DHT22;11050;52.222;20.916;2023-06-24T12:49:46;23.70;74.00
21778;DHT22;11050;52.222;20.916;2023-06-24T12:52:13;23.80;74.00
21778;DHT22;11050;52.222;20.916;2023-06-24T12:54:39;24.00;72.60
21778;DHT22;11050;52.222;20.916;2023-06-24T12:57:06;24.10;73.40
21778;DHT22;11050;52.222;20.916;2023-06-24T12:59:31;24.30;71.70
21778;DHT22;11050;52.222;20.916;2023-06-24T13:01:57;24.40;70.50
21778;DHT22;11050;52.222;20.916;2023-06-24T13:04:23;24.70;70.00
21778;DHT22;11050;52.222;20.916;2023-06-24T13:06:50;25.00;69.10
21778;DHT22;11050;52.222;20.916;2023-06-24T13:09:16;25.40;67.20
21778;DHT22;11050;52.222;20.916;2023-06-24T13:11:42;25.60;66.30
21778;DHT22;11050;52.222;20.916;2023-06-24T13:14:08;25.90;64.60
21778;DHT22;11050;52.222;20.916;2023-06-24T13:16:38;26.10;62.60
21778;DHT22;11050;52.222;20.916;2023-06-24T13:19:04;26.10;60.20
21778;DHT22;11050;52.222;20.916;2023-06-24T13:21:30;26.10;59.60
21778;DHT22;11050;52.222;20.916;2023-06-24T13:23:55;26.20;58.90
21778;DHT22;11050;52.222;20.916;2023-06-24T13:26:21;26.30;59.00
21778;DHT22;11050;52.222;20.916;2023-06-24T13:28:47;26.40;57.30
21778;DHT22;11050;52.222;20.916;2023-06-24T13:31:14;26.60;55.30
21778;DHT22;11050;52.222;20.916;2023-06-24T13:33:40;26.80;55.00
21778;DHT22;11050;52.222;20.916;2023-06-24T13:36:07;26.90;53.40
21778;DHT22;11050;52.222;20.916;2023-06-24T13:38:37;26.80;54.20
21778;DHT22;11050;52.222;20.916;2023-06-24T13:41:03;26.90;53.50
21778;DHT22;11050;52.222;20.916;2023-06-24T13:43:29;26.80;52.70
21778;DHT22;11050;52.222;20.916;2023-06-24T13:45:54;26.70;52.30
21778;DHT22;11050;52.222;20.916;2023-06-24T13:48:20;26.60;52.70
21778;DHT22;11050;52.222;20.916;2023-06-24T13:50:46;26.40;53.20
21778;DHT22;11050;52.222;20.916;2023-06-24T13:53:12;26.30;53.50
21778;DHT22;11050;52.222;20.916;2023-06-24T13:55:37;26.10;54.20
21778;DHT22;11050;52.222;20.916;2023-06-24T13:58:03;25.90;55.80
21778;DHT22;11050;52.222;20.916;2023-06-24T14:00:29;25.60;56.30
21778;DHT22;11050;52.222;20.916;2023-06-24T14:02:55;25.50;56.90
21778;DHT22;11050;52.222;20.916;2023-06-24T14:05:21;25.30;57.70
21778;DHT22;11050;52.222;20.916;2023-06-24T14:07:46;25.10;57.80
21778;DHT22;11050;52.222;20.916;2023-06-24T14:10:12;24.80;57.90
21778;DHT22;11050;52.222;20.916;2023-06-24T14:12:38;24.60;58.10
21778;DHT22;11050;52.222;20.916;2023-06-24T14:15:08;24.40;58.50
21778;DHT22;11050;52.222;20.916;2023-06-24T14:17:34;24.10;59.10
21778;DHT22;11050;52.222;20.916;2023-06-24T14:20:00;24.00;60.00
21778;DHT22;11050;52.222;20.916;2023-06-24T14:22:26;23.90;61.60
21778;DHT22;11050;52.222;20.916;2023-06-24T14:24:52;23.70;63.60
21778;DHT22;11050;52.222;20.916;2023-06-24T14:27:17;23.60;64.60
21778;DHT22;11050;52.222;20.916;2023-06-24T14:29:43;23.50;66.70
21778;DHT22;11050;52.222;20.916;2023-06-24T14:32:09;23.30;69.20
21778;DHT22;11050;52.222;20.916;2023-06-24T14:34:35;23.10;71.40
21778;DHT22;11050;52.222;20.916;2023-06-24T14:37:01;22.90;71.90
21778;DHT22;11050;52.222;20.916;2023-06-24T14:39:26;22.60;72.50
21778;DHT22;11050;52.222;20.916;2023-06-24T14:41:53;22.40;74.10
21778;DHT22;11050;52.222;20.916;2023-06-24T14:44:19;22.20;75.50
21778;DHT22;11050;52.222;20.916;2023-06-24T14:46:45;21.90;77.10
21778;DHT22;11050;52.222;20.916;2023-06-24T14:49:10;21.70;78.00
21778;DHT22;11050;52.222;20.916;2023-06-24T14:51:36;21.60;79.50
21778;DHT22;11050;52.222;20.916;2023-06-24T14:54:02;21.50;80.50
21778;DHT22;11050;52.222;20.916;2023-06-24T14:56:28;21.40;81.20
21778;DHT22;11050;52.222;20.916;2023-06-24T14:58:53;21.40;82.40
21778;DHT22;11050;52.222;20.916;2023-06-24T15:01:19;21.30;83.40
21778;DHT22;11050;52.222;20.916;2023-06-24T15:03:45;21.20;84.60
21778;DHT22;11050;52.222;20.916;2023-06-24T15:06:11;21.20;85.20
21778;DHT22;11050;52.222;20.916;2023-06-24T15:08:36;21.10;85.90
21778;DHT22;11050;52.222;20.916;2023-06-24T15:11:02;21.00;86.70
21778;DHT22;11050;52.222;20.916;2023-06-24T15:13:28;21.00;87.50
21778;DHT22;11050;52.222;20.916;2023-06-24T15:15:54;20.90;87.80
21778;DHT22;11050;52.222;20.916;2023-06-24T15:18:25;20.90;87.50
21778;DHT22;11050;52.222;20.916;2023-06-24T15:20:50;20.80;87.70
21778;DHT22;11050;52.222;20.916;2023-06-24T15:23:16;20.80;89.40
21778;DHT22;11050;52.222;20.916;2023-06-24T15:25:42;20.80;89.80
21778;DHT22;11050;52.222;20.916;2023-06-24T15:28:08;20.70;90.00
21778;DHT22;11050;52.222;20.916;2023-06-24T15:30:34;20.60;90.30
21778;DHT22;11050;52.222;20.916;2023-06-24T15:32:59;20.60;90.30
21778;DHT22;11050;52.222;20.916;2023-06-24T15:35:25;20.50;90.80
21778;DHT22;11050;52.222;20.916;2023-06-24T15:37:51;20.40;90.60